createdAt,value
2022-08-26T00:00:49.186Z,18.93
2022-08-26T00:03:17.284Z,18.99
2022-08-26T00:05:44.946Z,18.87
2022-08-26T00:08:14.613Z,18.94
2022-08-26T00:10:42.133Z,18.86
2022-08-26T00:13:09.839Z,18.83
2022-08-26T00:15:37.625Z,18.89
2022-08-26T00:18:21.750Z,18.85
2022-08-26T00:20:49.570Z,18.87
2022-08-26T00:23:16.608Z,18.98
2022-08-26T00:25:43.746Z,18.90
2022-08-26T00:28:10.930Z,18.90
2022-08-26T00:30:38.526Z,18.81
2022-08-26T00:33:07.127Z,18.77
2022-08-26T00:35:34.368Z,18.79
2022-08-26T00:38:03.431Z,18.66
2022-08-26T00:40:34.376Z,18.73
2022-08-26T00:43:03.091Z,18.61
2022-08-26T00:45:42.081Z,18.59
2022-08-26T00:48:13.468Z,18.43
2022-08-26T00:50:47.372Z,18.41
2022-08-26T00:53:14.260Z,18.48
2022-08-26T00:55:41.433Z,18.41
2022-08-26T00:58:08.837Z,18.45
2022-08-26T01:00:35.672Z,18.38
2022-08-26T01:03:03.374Z,18.38
2022-08-26T01:05:33.260Z,18.33
2022-08-26T01:08:00.456Z,18.16
2022-08-26T01:10:30.999Z,18.24
2022-08-26T01:13:00.973Z,18.11
2022-08-26T01:15:32.767Z,18.08
2022-08-26T01:17:59.904Z,18.02
2022-08-26T01:20:35.090Z,18.12
2022-08-26T01:23:05.913Z,18.06
2022-08-26T01:25:39.364Z,18.07
2022-08-26T01:28:10.009Z,18.07
2022-08-26T01:30:39.351Z,18.03
2022-08-26T01:33:12.722Z,18.05
2022-08-26T01:35:40.201Z,17.99
2022-08-26T01:38:08.598Z,17.90
2022-08-26T01:40:38.515Z,17.83
2022-08-26T01:43:08.135Z,17.87
2022-08-26T01:45:43.150Z,17.89
2022-08-26T01:48:14.219Z,17.85
2022-08-26T01:50:43.164Z,17.85
2022-08-26T01:53:14.750Z,17.71
2022-08-26T01:55:44.896Z,17.67
2022-08-26T01:58:16.554Z,17.55
2022-08-26T02:00:44.288Z,17.75
2022-08-26T02:03:11.106Z,17.57
2022-08-26T02:05:39.445Z,17.63
2022-08-26T02:08:07.070Z,17.49
2022-08-26T02:10:35.082Z,17.56
2022-08-26T02:13:02.832Z,17.53
2022-08-26T02:15:29.917Z,17.55
2022-08-26T02:17:56.971Z,17.53
2022-08-26T02:20:25.199Z,17.51
2022-08-26T02:22:53.318Z,17.48
2022-08-26T02:25:24.877Z,17.37
2022-08-26T02:27:53.162Z,17.44
2022-08-26T02:30:23.888Z,17.44
2022-08-26T02:32:52.912Z,17.44
2022-08-26T02:35:22.019Z,17.46
2022-08-26T02:37:49.476Z,17.46
2022-08-26T02:40:18.111Z,17.39
2022-08-26T02:42:45.074Z,17.30
2022-08-26T02:45:13.097Z,17.41
2022-08-26T02:47:43.426Z,17.38
2022-08-26T02:50:10.041Z,17.37
2022-08-26T02:52:37.179Z,17.33
2022-08-26T02:55:05.510Z,17.28
2022-08-26T02:57:32.181Z,17.22
2022-08-26T02:59:59.465Z,17.17
2022-08-26T03:02:28.322Z,17.14
2022-08-26T03:04:58.104Z,17.13
2022-08-26T03:07:28.918Z,17.12
2022-08-26T03:09:56.277Z,17.13
2022-08-26T03:12:23.184Z,17.12
2022-08-26T03:14:49.770Z,17.13
2022-08-26T03:17:16.570Z,17.14
2022-08-26T03:19:44.469Z,17.18
2022-08-26T03:22:11.750Z,17.23
2022-08-26T03:24:41.217Z,17.14
2022-08-26T03:27:11.052Z,17.31
2022-08-26T03:29:38.818Z,17.32
2022-08-26T03:32:05.822Z,17.33
2022-08-26T03:34:32.361Z,17.43
2022-08-26T03:37:00.441Z,17.51
2022-08-26T03:39:27.447Z,17.45
2022-08-26T03:41:58.696Z,17.54
2022-08-26T03:44:25.334Z,17.56
2022-08-26T03:46:52.229Z,17.62
2022-08-26T03:49:18.827Z,17.69
2022-08-26T03:51:45.446Z,17.74
2022-08-26T03:54:13.525Z,17.78
2022-08-26T03:56:40.242Z,17.80
2022-08-26T03:59:07.540Z,17.85
2022-08-26T04:01:34.700Z,17.89
2022-08-26T04:04:01.281Z,17.93
2022-08-26T04:06:30.442Z,17.97
2022-08-26T04:08:59.137Z,17.96
2022-08-26T04:11:28.670Z,18.02
2022-08-26T04:14:03.108Z,18.09
2022-08-26T04:16:29.911Z,18.12
2022-08-26T04:18:57.543Z,18.07
2022-08-26T04:21:26.140Z,18.23
2022-08-26T04:23:53.580Z,18.29
2022-08-26T04:26:21.369Z,18.37
2022-08-26T04:28:51.020Z,18.18
2022-08-26T04:31:18.888Z,18.36
2022-08-26T04:33:47.461Z,18.46
2022-08-26T04:36:16.483Z,18.48
2022-08-26T04:38:43.201Z,18.54
2022-08-26T04:41:15.560Z,18.63
2022-08-26T04:43:43.816Z,18.69
2022-08-26T04:46:12.980Z,18.76
2022-08-26T04:48:40.567Z,18.81
2022-08-26T04:51:07.127Z,18.89
2022-08-26T04:53:34.635Z,19.01
2022-08-26T04:56:01.388Z,19.02
2022-08-26T04:58:30.750Z,19.18
2022-08-26T05:00:57.376Z,19.25
2022-08-26T05:03:26.281Z,19.36
2022-08-26T05:05:53.668Z,19.47
2022-08-26T05:08:21.576Z,19.56
2022-08-26T05:10:50.685Z,19.72
2022-08-26T05:13:20.608Z,19.75
2022-08-26T05:15:48.243Z,19.82
2022-08-26T05:18:16.981Z,19.97
2022-08-26T05:20:50.652Z,20.06
2022-08-26T05:23:18.073Z,20.14
2022-08-26T05:25:47.000Z,20.24
2022-08-26T05:28:15.947Z,20.30
2022-08-26T05:30:43.028Z,20.27
2022-08-26T05:33:11.628Z,20.43
2022-08-26T05:35:39.102Z,20.49
2022-08-26T05:38:12.686Z,20.57
2022-08-26T05:40:41.586Z,20.61
2022-08-26T05:43:08.997Z,20.71
2022-08-26T05:45:36.149Z,20.75
2022-08-26T05:48:03.121Z,20.81
2022-08-26T05:50:36.541Z,20.91
2022-08-26T05:53:06.944Z,20.91
2022-08-26T05:55:33.710Z,21.04
2022-08-26T05:58:01.030Z,21.04
2022-08-26T06:00:29.347Z,21.13
2022-08-26T06:02:55.966Z,21.21
2022-08-26T06:05:22.536Z,21.25
2022-08-26T06:07:49.384Z,21.30
2022-08-26T06:10:33.818Z,21.41
2022-08-26T06:13:04.605Z,21.35
2022-08-26T06:15:41.940Z,21.45
2022-08-26T06:18:09.054Z,21.49
2022-08-26T06:20:35.822Z,21.55
2022-08-26T06:23:03.857Z,21.60
2022-08-26T06:25:32.430Z,21.69
2022-08-26T06:27:59.044Z,21.74
2022-08-26T06:30:26.502Z,21.73
2022-08-26T06:32:53.385Z,21.77
2022-08-26T06:35:20.009Z,21.79
2022-08-26T06:37:47.706Z,21.90
2022-08-26T06:40:14.351Z,21.94
2022-08-26T06:42:42.338Z,21.96
2022-08-26T06:45:10.687Z,21.89
2022-08-26T06:47:41.491Z,21.97
2022-08-26T06:50:08.755Z,21.99
2022-08-26T06:52:35.317Z,21.97
2022-08-26T06:55:02.031Z,22.00
2022-08-26T06:57:28.732Z,21.98
2022-08-26T06:59:59.564Z,22.10
2022-08-26T07:02:28.441Z,22.17
2022-08-26T07:04:56.825Z,22.19
2022-08-26T07:07:23.487Z,22.28
2022-08-26T07:09:52.486Z,22.13
2022-08-26T07:12:19.444Z,22.24
2022-08-26T07:14:47.326Z,22.18
2022-08-26T07:17:16.510Z,22.24
2022-08-26T07:19:43.246Z,22.35
2022-08-26T07:22:09.876Z,22.31
2022-08-26T07:24:39.426Z,22.23
2022-08-26T07:27:08.921Z,22.37
2022-08-26T07:29:36.993Z,22.51
2022-08-26T07:32:04.122Z,22.39
2022-08-26T07:34:33.316Z,22.47
2022-08-26T07:37:00.441Z,22.47
2022-08-26T07:39:28.067Z,22.52
2022-08-26T07:41:54.996Z,22.44
2022-08-26T07:44:22.193Z,22.56
2022-08-26T07:46:53.191Z,22.56
2022-08-26T07:49:20.929Z,22.62
2022-08-26T07:51:49.239Z,22.61
2022-08-26T07:54:15.865Z,22.57
2022-08-26T07:56:44.285Z,22.57
2022-08-26T07:59:14.073Z,22.62
2022-08-26T08:01:44.706Z,22.00
2022-08-26T08:04:12.521Z,22.60
2022-08-26T08:06:41.482Z,22.58
2022-08-26T08:09:13.311Z,22.72
2022-08-26T08:11:40.202Z,22.82
2022-08-26T08:14:08.430Z,22.86
2022-08-26T08:16:37.246Z,22.83
2022-08-26T08:19:05.742Z,22.90
2022-08-26T08:21:32.571Z,22.84
2022-08-26T08:23:59.270Z,22.89
2022-08-26T08:26:27.440Z,22.85
2022-08-26T08:28:55.474Z,22.89
2022-08-26T08:31:52.134Z,22.96
2022-08-26T08:34:11.096Z,22.90
2022-08-26T08:36:37.727Z,22.98
2022-08-26T08:39:05.067Z,22.94
2022-08-26T08:41:48.200Z,23.11
2022-08-26T08:44:18.380Z,23.16
2022-08-26T08:46:47.642Z,23.26
2022-08-26T08:49:15.255Z,23.23
2022-08-26T08:51:48.005Z,23.23
2022-08-26T08:54:14.982Z,23.28
2022-08-26T08:56:50.083Z,23.36
2022-08-26T08:59:19.995Z,23.36
2022-08-26T09:01:59.695Z,23.39
2022-08-26T09:04:58.222Z,23.44
2022-08-26T09:07:28.120Z,23.53
2022-08-26T09:09:58.018Z,23.60
2022-08-26T09:12:29.390Z,23.68
2022-08-26T09:15:02.144Z,23.74
2022-08-26T09:17:43.907Z,23.84
2022-08-26T09:20:17.579Z,23.94
2022-08-26T09:22:44.434Z,23.96
2022-08-26T09:25:13.477Z,23.86
2022-08-26T09:27:44.015Z,23.91
2022-08-26T09:30:13.533Z,24.03
2022-08-26T09:32:40.858Z,24.12
2022-08-26T09:35:23.437Z,24.16
2022-08-26T09:40:22.092Z,23.79
2022-08-26T09:43:06.760Z,23.79
2022-08-26T09:45:33.656Z,23.83
2022-08-26T09:48:02.321Z,23.72
2022-08-26T09:50:33.949Z,23.91
2022-08-26T09:53:14.628Z,23.87
2022-08-26T09:55:43.189Z,23.83
2022-08-26T09:58:15.420Z,23.91
2022-08-26T10:00:43.493Z,23.74
2022-08-26T10:03:21.553Z,24.00
2022-08-26T10:05:57.284Z,24.16
2022-08-26T10:08:27.681Z,24.25
2022-08-26T10:10:55.749Z,24.16
2022-08-26T10:13:29.537Z,24.18
2022-08-26T10:16:03.826Z,24.08
2022-08-26T10:18:35.403Z,24.24
2022-08-26T10:21:07.368Z,24.32
2022-08-26T10:26:12.348Z,24.18
2022-08-26T10:28:45.849Z,24.29
2022-08-26T10:31:28.627Z,24.13
2022-08-26T10:33:58.891Z,24.23
2022-08-26T10:36:30.552Z,24.24
2022-08-26T10:38:59.871Z,24.19
2022-08-26T10:41:31.424Z,24.21
2022-08-26T10:44:01.344Z,23.99
2022-08-26T10:46:36.929Z,24.13
2022-08-26T10:49:06.835Z,24.28
2022-08-26T10:51:36.120Z,24.12
2022-08-26T10:54:09.416Z,24.12
2022-08-26T10:56:45.865Z,24.30
2022-08-26T10:59:24.230Z,24.09
2022-08-26T11:01:57.571Z,24.07
2022-08-26T11:04:51.069Z,24.15
2022-08-26T11:07:37.832Z,24.32
2022-08-26T11:10:08.711Z,24.03
2022-08-26T11:12:50.655Z,24.25
2022-08-26T11:15:50.467Z,24.28
2022-08-26T11:18:45.654Z,24.36
2022-08-26T11:22:04.811Z,24.38
2022-08-26T11:25:00.329Z,24.18
2022-08-26T11:28:03.486Z,24.33
2022-08-26T11:30:42.733Z,24.29
2022-08-26T11:33:10.500Z,24.53
2022-08-26T11:35:50.840Z,24.62
2022-08-26T11:38:27.337Z,24.86
2022-08-26T11:41:08.915Z,24.95
2022-08-26T11:43:37.753Z,25.03
2022-08-26T11:46:07.316Z,25.16
2022-08-26T11:48:37.015Z,25.17
2022-08-26T11:51:07.764Z,25.19
2022-08-26T11:53:37.193Z,25.18
2022-08-26T11:56:07.874Z,25.28
2022-08-26T11:58:35.776Z,25.47
2022-08-26T12:01:05.963Z,25.35
2022-08-26T12:03:41.159Z,25.62
2022-08-26T12:06:16.259Z,25.66
2022-08-26T12:08:44.646Z,25.73
2022-08-26T12:11:20.021Z,25.66
2022-08-26T12:13:54.659Z,25.45
2022-08-26T12:16:24.273Z,25.22
2022-08-26T12:18:51.889Z,25.38
2022-08-26T12:21:24.410Z,25.28
2022-08-26T12:23:53.805Z,25.30
2022-08-26T12:26:25.417Z,25.27
2022-08-26T12:28:55.578Z,25.01
2022-08-26T12:31:28.953Z,24.98
2022-08-26T12:33:56.996Z,24.92
2022-08-26T12:36:30.672Z,25.14
2022-08-26T12:39:05.248Z,25.14
2022-08-26T12:41:40.802Z,25.23
2022-08-26T12:44:07.960Z,25.31
2022-08-26T12:46:34.706Z,25.54
2022-08-26T12:49:01.425Z,25.55
2022-08-26T12:51:31.880Z,25.74
2022-08-26T12:53:59.150Z,25.90
2022-08-26T12:56:33.862Z,26.08
2022-08-26T12:59:19.039Z,26.08
2022-08-26T13:01:45.815Z,26.17
2022-08-26T13:04:40.925Z,26.24
2022-08-26T13:07:20.303Z,26.22
2022-08-26T13:09:47.007Z,26.40
2022-08-26T13:12:24.149Z,26.46
2022-08-26T13:14:50.776Z,26.66
2022-08-26T13:17:17.309Z,26.82
2022-08-26T13:19:44.102Z,26.76
2022-08-26T13:22:12.828Z,26.91
2022-08-26T13:24:43.141Z,26.98
2022-08-26T13:27:13.828Z,26.82
2022-08-26T13:29:41.046Z,26.84
2022-08-26T13:32:08.527Z,26.89
2022-08-26T13:34:37.283Z,26.86
2022-08-26T13:37:04.906Z,26.77
2022-08-26T13:39:31.579Z,26.81
2022-08-26T13:41:59.482Z,26.79
2022-08-26T13:44:26.049Z,26.86
2022-08-26T13:46:52.601Z,26.66
2022-08-26T13:49:19.172Z,26.32
2022-08-26T13:51:45.724Z,26.04
2022-08-26T13:54:12.301Z,26.12
2022-08-26T13:56:38.961Z,26.28
2022-08-26T13:59:06.934Z,26.18
2022-08-26T14:01:35.453Z,26.28
2022-08-26T14:04:02.370Z,26.23
2022-08-26T14:06:28.998Z,26.35
2022-08-26T14:08:55.550Z,26.37
2022-08-26T14:11:23.157Z,26.29
2022-08-26T14:13:49.773Z,26.16
2022-08-26T14:16:22.764Z,26.22
2022-08-26T14:18:50.889Z,26.05
2022-08-26T14:21:18.364Z,26.00
2022-08-26T14:23:45.090Z,25.94
2022-08-26T14:26:12.029Z,25.72
2022-08-26T14:28:54.474Z,25.86
2022-08-26T14:31:22.448Z,25.76
2022-08-26T14:33:49.185Z,25.90
2022-08-26T14:36:15.715Z,25.91
2022-08-26T14:38:42.396Z,25.96
2022-08-26T14:41:09.500Z,25.98
2022-08-26T14:43:36.241Z,26.03
2022-08-26T14:46:03.979Z,25.97
2022-08-26T14:48:32.049Z,26.01
2022-08-26T14:50:58.643Z,25.95
2022-08-26T14:53:25.285Z,25.97
2022-08-26T14:55:52.416Z,25.87
2022-08-26T14:58:19.097Z,25.97
2022-08-26T15:00:45.824Z,25.90
2022-08-26T15:03:12.582Z,25.93
2022-08-26T15:05:42.198Z,25.91
2022-08-26T15:08:09.788Z,25.89
2022-08-26T15:10:36.493Z,25.92
2022-08-26T15:13:03.125Z,25.93
2022-08-26T15:15:29.745Z,25.87
2022-08-26T15:17:56.409Z,25.96
2022-08-26T15:20:23.115Z,25.94
2022-08-26T15:22:51.141Z,25.96
2022-08-26T15:25:17.730Z,25.96
2022-08-26T15:27:44.598Z,25.84
2022-08-26T15:30:13.006Z,25.70
2022-08-26T15:32:39.654Z,25.64
2022-08-26T15:35:09.269Z,25.60
2022-08-26T15:37:36.275Z,25.55
2022-08-26T15:40:05.268Z,25.57
2022-08-26T15:42:32.058Z,25.49
2022-08-26T15:44:58.616Z,25.43
2022-08-26T15:47:25.245Z,25.47
2022-08-26T15:49:51.769Z,25.50
2022-08-26T15:52:18.418Z,25.46
2022-08-26T15:54:44.977Z,25.57
2022-08-26T15:57:15.365Z,25.57
2022-08-26T15:59:43.158Z,25.65
2022-08-26T16:02:09.807Z,25.65
2022-08-26T16:04:36.885Z,25.52
2022-08-26T16:07:03.845Z,25.56
2022-08-26T16:09:30.513Z,25.58
2022-08-26T16:11:57.467Z,25.50
2022-08-26T16:14:26.921Z,25.47
2022-08-26T16:16:53.469Z,25.35
2022-08-26T16:19:20.350Z,25.38
2022-08-26T16:21:46.988Z,25.27
2022-08-26T16:24:14.474Z,25.19
2022-08-26T16:26:43.026Z,25.12
2022-08-26T16:29:11.745Z,25.22
2022-08-26T16:31:39.836Z,25.12
2022-08-26T16:34:07.454Z,25.08
2022-08-26T16:36:34.371Z,25.13
2022-08-26T16:39:01.210Z,24.92
2022-08-26T16:41:29.509Z,24.98
2022-08-26T16:43:56.679Z,25.02
2022-08-26T16:46:24.516Z,25.05
2022-08-26T16:48:53.002Z,25.03
2022-08-26T16:51:21.715Z,24.93
2022-08-26T16:53:50.306Z,25.00
2022-08-26T16:56:20.473Z,24.94
2022-08-26T16:58:47.436Z,24.89
2022-08-26T17:01:14.454Z,24.91
2022-08-26T17:03:41.202Z,24.86
2022-08-26T17:06:09.906Z,24.83
2022-08-26T17:08:37.441Z,24.73
2022-08-26T17:11:04.333Z,24.73
2022-08-26T17:13:35.741Z,24.66
2022-08-26T17:16:04.267Z,24.51
2022-08-26T17:18:31.766Z,24.54
2022-08-26T17:21:00.876Z,24.52
2022-08-26T17:23:28.874Z,24.45
2022-08-26T17:25:55.457Z,24.28
2022-08-26T17:28:22.037Z,24.40
2022-08-26T17:30:48.694Z,24.43
2022-08-26T17:33:18.646Z,24.35
2022-08-26T17:35:48.813Z,24.33
2022-08-26T17:38:15.410Z,24.30
2022-08-26T17:40:43.400Z,24.28
2022-08-26T17:43:12.339Z,24.27
2022-08-26T17:45:39.922Z,24.22
2022-08-26T17:48:06.854Z,24.14
2022-08-26T17:50:33.550Z,24.12
2022-08-26T17:53:00.156Z,24.04
2022-08-26T17:55:26.917Z,23.95
2022-08-26T17:57:55.572Z,23.83
2022-08-26T18:00:27.013Z,23.92
2022-08-26T18:02:54.266Z,23.90
2022-08-26T18:05:21.872Z,23.86
2022-08-26T18:07:48.554Z,23.82
2022-08-26T18:10:20.868Z,23.81
2022-08-26T18:12:48.201Z,23.81
2022-08-26T18:15:17.306Z,23.79
2022-08-26T18:17:44.913Z,23.77
2022-08-26T18:20:14.273Z,23.69
2022-08-26T18:22:41.044Z,23.71
2022-08-26T18:25:08.648Z,23.68
2022-08-26T18:27:36.185Z,23.65
2022-08-26T18:30:04.457Z,23.53
2022-08-26T18:32:32.577Z,23.54
2022-08-26T18:34:59.323Z,23.52
2022-08-26T18:37:29.472Z,23.49
2022-08-26T18:39:58.125Z,23.42
2022-08-26T18:42:24.809Z,23.38
2022-08-26T18:44:51.652Z,23.39
2022-08-26T18:47:18.208Z,23.21
2022-08-26T18:49:46.257Z,23.34
2022-08-26T18:52:13.008Z,23.30
2022-08-26T18:54:39.731Z,23.23
2022-08-26T18:57:06.374Z,23.14
2022-08-26T18:59:33.792Z,23.09
2022-08-26T19:02:00.508Z,23.07
2022-08-26T19:04:27.350Z,23.00
2022-08-26T19:06:55.342Z,22.91
2022-08-26T19:09:22.008Z,22.98
2022-08-26T19:11:50.003Z,22.99
2022-08-26T19:14:17.682Z,22.88
2022-08-26T19:16:48.730Z,23.04
2022-08-26T19:19:16.501Z,22.98
2022-08-26T19:21:43.326Z,22.96
2022-08-26T19:24:15.872Z,22.94
2022-08-26T19:26:43.431Z,22.81
2022-08-26T19:29:10.005Z,22.74
2022-08-26T19:31:36.656Z,22.65
2022-08-26T19:34:03.986Z,22.74
2022-08-26T19:36:31.865Z,22.70
2022-08-26T19:38:58.495Z,22.68
2022-08-26T19:41:36.687Z,22.58
2022-08-26T19:44:06.954Z,22.71
2022-08-26T19:46:33.688Z,22.70
2022-08-26T19:49:00.241Z,22.71
2022-08-26T19:51:29.355Z,22.67
2022-08-26T19:53:58.088Z,22.70
2022-08-26T19:56:27.640Z,22.67
2022-08-26T19:58:55.013Z,22.66
2022-08-26T20:01:22.169Z,22.51
2022-08-26T20:03:49.216Z,22.53
2022-08-26T20:06:16.830Z,22.52
2022-08-26T20:08:44.190Z,22.54
2022-08-26T20:11:13.606Z,22.59
2022-08-26T20:13:42.577Z,22.54
2022-08-26T20:16:09.295Z,22.56
2022-08-26T20:18:35.919Z,22.47
2022-08-26T20:21:02.549Z,22.51
2022-08-26T20:23:29.118Z,22.46
2022-08-26T20:25:55.658Z,22.38
2022-08-26T20:28:22.229Z,22.46
2022-08-26T20:30:50.209Z,22.45
2022-08-26T20:33:16.758Z,22.45
2022-08-26T20:35:43.299Z,22.44
2022-08-26T20:38:09.964Z,22.35
2022-08-26T20:40:36.562Z,22.40
2022-08-26T20:43:03.156Z,22.34
2022-08-26T20:45:29.795Z,22.42
2022-08-26T20:47:57.861Z,22.34
2022-08-26T20:50:24.421Z,22.40
2022-08-26T20:52:50.962Z,22.35
2022-08-26T20:55:17.515Z,22.39
2022-08-26T20:57:44.046Z,22.39
2022-08-26T21:00:12.043Z,22.37
2022-08-26T21:02:38.777Z,22.34
2022-08-26T21:05:08.298Z,22.28
2022-08-26T21:07:35.601Z,22.21
2022-08-26T21:10:02.909Z,22.11
2022-08-26T21:12:29.715Z,22.07
2022-08-26T21:14:56.282Z,22.10
2022-08-26T21:17:22.856Z,22.05
2022-08-26T21:19:49.386Z,22.04
2022-08-26T21:22:17.315Z,22.04
2022-08-26T21:24:43.860Z,21.98
2022-08-26T21:27:10.789Z,21.75
2022-08-26T21:29:37.366Z,21.92
2022-08-26T21:32:04.462Z,21.87
2022-08-26T21:34:31.043Z,21.89
2022-08-26T21:36:57.756Z,21.82
2022-08-26T21:39:26.005Z,21.69
2022-08-26T21:41:52.543Z,21.87
2022-08-26T21:44:19.105Z,21.89
2022-08-26T21:46:46.285Z,21.82
2022-08-26T21:49:14.825Z,21.85
2022-08-26T21:51:44.180Z,21.79
2022-08-26T21:54:12.102Z,21.75
2022-08-26T21:56:42.681Z,21.67
2022-08-26T21:59:09.413Z,21.63
2022-08-26T22:01:36.491Z,21.60
2022-08-26T22:04:05.686Z,21.48
2022-08-26T22:06:34.658Z,21.61
2022-08-26T22:09:01.402Z,21.57
2022-08-26T22:11:28.365Z,21.55
2022-08-26T22:13:56.376Z,21.45
2022-08-26T22:16:23.153Z,21.42
2022-08-26T22:18:50.049Z,21.41
2022-08-26T22:21:19.265Z,21.30
2022-08-26T22:23:46.480Z,21.26
2022-08-26T22:26:15.640Z,21.27
2022-08-26T22:28:52.430Z,21.29
2022-08-26T22:31:37.078Z,21.24
2022-08-26T22:34:06.339Z,21.27
2022-08-26T22:36:32.860Z,21.30
2022-08-26T22:39:00.701Z,21.32
2022-08-26T22:41:27.461Z,21.27
2022-08-26T22:43:54.035Z,21.31
2022-08-26T22:46:25.597Z,21.32
2022-08-26T22:48:54.269Z,21.11
2022-08-26T22:51:21.889Z,21.20
2022-08-26T22:53:48.982Z,21.14
2022-08-26T22:56:15.909Z,21.16
2022-08-26T22:58:42.613Z,21.00
2022-08-26T23:01:09.383Z,21.15
2022-08-26T23:03:36.141Z,21.10
2022-08-26T23:06:06.321Z,21.15
2022-08-26T23:08:32.919Z,21.09
2022-08-26T23:10:59.511Z,21.05
2022-08-26T23:13:26.103Z,21.07
2022-08-26T23:16:00.617Z,21.07
2022-08-26T23:18:27.367Z,21.04
2022-08-26T23:20:54.339Z,21.00
2022-08-26T23:23:22.363Z,21.00
2022-08-26T23:25:48.959Z,20.95
2022-08-26T23:28:16.221Z,20.93
2022-08-26T23:30:42.836Z,21.00
2022-08-26T23:33:09.462Z,20.85
2022-08-26T23:35:35.997Z,20.98
2022-08-26T23:38:04.828Z,20.96
2022-08-26T23:40:34.680Z,20.93
2022-08-26T23:43:04.244Z,20.87
2022-08-26T23:45:31.309Z,20.91
2022-08-26T23:47:58.713Z,20.75
2022-08-26T23:50:27.654Z,20.87
2022-08-26T23:52:54.205Z,20.82
2022-08-26T23:55:20.835Z,20.82
2022-08-26T23:57:49.173Z,20.82
